createdAt,value
2022-08-03T00:02:21.705Z,20.93
2022-08-03T00:04:49.780Z,20.91
2022-08-03T00:07:17.970Z,20.84
2022-08-03T00:09:46.029Z,20.79
2022-08-03T00:12:15.745Z,20.77
2022-08-03T00:14:43.897Z,20.76
2022-08-03T00:17:12.113Z,20.73
2022-08-03T00:19:40.054Z,20.72
2022-08-03T00:22:08.085Z,20.69
2022-08-03T00:24:36.359Z,20.67
2022-08-03T00:27:04.489Z,20.66
2022-08-03T00:29:33.877Z,20.65
2022-08-03T00:32:23.387Z,20.64
2022-08-03T00:34:58.504Z,20.62
2022-08-03T00:37:40.677Z,20.60
2022-08-03T00:40:13.367Z,20.58
2022-08-03T00:42:51.689Z,20.51
2022-08-03T00:45:22.328Z,20.48
2022-08-03T00:47:50.392Z,20.47
2022-08-03T00:50:19.783Z,20.44
2022-08-03T00:52:48.563Z,20.42
2022-08-03T00:55:19.153Z,20.39
2022-08-03T00:57:47.898Z,20.35
2022-08-03T01:00:19.842Z,20.33
2022-08-03T01:02:49.650Z,20.27
2022-08-03T01:05:17.746Z,20.27
2022-08-03T01:07:59.689Z,20.26
2022-08-03T01:15:18.944Z,20.13
2022-08-03T01:22:41.454Z,20.06
2022-08-03T01:25:25.537Z,20.01
2022-08-03T01:28:03.528Z,19.98
2022-08-03T01:30:36.235Z,19.97
2022-08-03T01:33:07.252Z,19.96
2022-08-03T01:35:40.469Z,19.95
2022-08-03T01:38:16.131Z,19.90
2022-08-03T01:40:48.032Z,19.91
2022-08-03T01:44:27.043Z,19.90
2022-08-03T01:46:09.830Z,19.88
2022-08-03T01:48:40.885Z,19.83
2022-08-03T01:51:11.729Z,19.80
2022-08-03T01:53:43.340Z,19.78
2022-08-03T01:56:11.999Z,19.78
2022-08-03T01:58:43.149Z,19.71
2022-08-03T02:01:14.155Z,19.71
2022-08-03T02:03:59.879Z,19.71
2022-08-03T02:07:00.056Z,19.71
2022-08-03T02:09:23.122Z,19.66
2022-08-03T02:11:52.987Z,19.64
2022-08-03T02:14:22.145Z,19.65
2022-08-03T02:16:52.748Z,19.65
2022-08-03T02:19:25.959Z,19.64
2022-08-03T02:22:01.315Z,19.62
2022-08-03T02:24:30.421Z,19.58
2022-08-03T02:27:00.118Z,19.58
2022-08-03T02:29:39.476Z,19.54
2022-08-03T02:32:17.027Z,19.52
2022-08-03T02:34:50.023Z,19.53
2022-08-03T02:37:20.441Z,19.49
2022-08-03T02:39:52.070Z,19.48
2022-08-03T02:42:23.196Z,19.43
2022-08-03T02:44:56.387Z,19.40
2022-08-03T02:47:28.837Z,19.43
2022-08-03T02:50:18.467Z,19.39
2022-08-03T02:52:48.441Z,19.37
2022-08-03T02:55:18.956Z,19.31
2022-08-03T02:57:48.463Z,19.26
2022-08-03T03:00:28.089Z,19.25
2022-08-03T03:03:00.419Z,19.20
2022-08-03T03:05:53.716Z,19.12
2022-08-03T03:08:20.685Z,19.14
2022-08-03T03:10:53.312Z,19.11
2022-08-03T03:13:24.231Z,19.11
2022-08-03T03:15:53.575Z,19.11
2022-08-03T03:18:23.894Z,19.07
2022-08-03T03:20:54.076Z,19.02
2022-08-03T03:23:23.400Z,19.03
2022-08-03T03:25:52.677Z,18.98
2022-08-03T03:28:23.396Z,18.96
2022-08-03T03:30:55.083Z,18.94
2022-08-03T03:33:24.643Z,18.94
2022-08-03T03:35:52.950Z,18.93
2022-08-03T03:38:21.413Z,18.96
2022-08-03T03:40:50.207Z,18.94
2022-08-03T03:43:18.828Z,18.95
2022-08-03T03:45:48.522Z,18.95
2022-08-03T03:48:16.993Z,18.94
2022-08-03T03:50:50.865Z,18.94
2022-08-03T03:53:18.927Z,18.92
2022-08-03T03:55:59.254Z,18.84
2022-08-03T03:58:32.289Z,18.83
2022-08-03T04:01:00.913Z,18.81
2022-08-03T04:03:29.257Z,18.74
2022-08-03T04:06:17.426Z,18.72
2022-08-03T04:09:03.636Z,18.70
2022-08-03T04:11:39.150Z,18.68
2022-08-03T04:14:11.757Z,18.65
2022-08-03T04:16:44.385Z,18.67
2022-08-03T04:19:23.265Z,18.67
2022-08-03T04:21:57.490Z,18.69
2022-08-03T04:24:28.073Z,18.68
2022-08-03T04:27:00.384Z,18.61
2022-08-03T04:29:30.462Z,18.62
2022-08-03T04:32:00.965Z,18.64
2022-08-03T04:34:31.783Z,18.64
2022-08-03T04:37:12.120Z,18.68
2022-08-03T04:39:43.072Z,18.73
2022-08-03T04:42:13.790Z,18.73
2022-08-03T04:44:43.696Z,18.80
2022-08-03T04:47:11.793Z,18.83
2022-08-03T04:49:44.889Z,18.88
2022-08-03T04:52:14.756Z,18.89
2022-08-03T04:54:45.887Z,18.94
2022-08-03T04:57:23.119Z,18.99
2022-08-03T05:00:02.234Z,19.05
2022-08-03T05:02:32.146Z,19.11
2022-08-03T05:05:00.794Z,19.12
2022-08-03T05:07:36.083Z,19.18
2022-08-03T05:10:14.712Z,19.21
2022-08-03T05:12:43.457Z,19.24
2022-08-03T05:15:12.097Z,19.28
2022-08-03T05:17:40.131Z,19.32
2022-08-03T05:20:09.331Z,19.37
2022-08-03T05:22:38.705Z,19.40
2022-08-03T05:25:07.133Z,19.46
2022-08-03T05:27:35.177Z,19.52
2022-08-03T05:30:29.819Z,19.53
2022-08-03T05:32:51.198Z,19.59
2022-08-03T05:36:00.766Z,19.60
2022-08-03T05:38:09.314Z,19.65
2022-08-03T05:40:37.442Z,19.71
2022-08-03T05:43:09.969Z,19.76
2022-08-03T05:45:38.684Z,19.81
2022-08-03T05:48:06.981Z,19.88
2022-08-03T05:50:39.862Z,19.98
2022-08-03T05:53:12.094Z,20.10
2022-08-03T05:55:40.041Z,20.18
2022-08-03T05:58:07.925Z,20.25
2022-08-03T06:00:36.120Z,20.35
2022-08-03T06:03:04.005Z,20.47
2022-08-03T06:05:36.375Z,20.53
2022-08-03T06:08:15.429Z,20.61
2022-08-03T06:10:43.695Z,20.69
2022-08-03T06:13:13.634Z,20.78
2022-08-03T06:15:41.789Z,20.87
2022-08-03T06:18:09.721Z,20.96
2022-08-03T06:20:37.656Z,21.03
2022-08-03T06:23:05.582Z,21.12
2022-08-03T06:25:36.883Z,21.20
2022-08-03T06:28:05.254Z,21.27
2022-08-03T06:30:33.300Z,21.35
2022-08-03T06:33:01.151Z,21.44
2022-08-03T06:35:29.313Z,21.51
2022-08-03T06:37:57.211Z,21.59
2022-08-03T06:40:31.046Z,21.67
2022-08-03T06:43:03.969Z,21.76
2022-08-03T06:45:32.309Z,21.85
2022-08-03T06:48:04.885Z,21.92
2022-08-03T06:50:33.059Z,22.01
2022-08-03T06:53:01.857Z,22.09
2022-08-03T06:55:30.028Z,22.17
2022-08-03T06:57:59.754Z,22.25
2022-08-03T07:00:32.610Z,22.33
2022-08-03T07:03:00.516Z,22.41
2022-08-03T07:05:28.792Z,22.52
2022-08-03T07:07:57.707Z,22.61
2022-08-03T07:10:27.611Z,22.69
2022-08-03T07:12:56.787Z,22.78
2022-08-03T07:15:54.247Z,23.00
2022-08-03T07:18:16.582Z,23.07
2022-08-03T07:20:44.690Z,23.14
2022-08-03T07:23:19.200Z,23.21
2022-08-03T07:25:47.557Z,23.29
2022-08-03T07:28:15.489Z,23.37
2022-08-03T07:30:43.518Z,23.43
2022-08-03T07:33:11.568Z,23.53
2022-08-03T07:35:40.965Z,23.63
2022-08-03T07:38:09.047Z,23.70
2022-08-03T07:40:37.067Z,23.75
2022-08-03T07:43:05.082Z,23.85
2022-08-03T07:45:33.349Z,23.96
2022-08-03T07:48:07.601Z,24.09
2022-08-03T07:50:41.893Z,24.15
2022-08-03T07:53:09.959Z,24.26
2022-08-03T07:55:38.501Z,24.35
2022-08-03T07:58:09.688Z,24.43
2022-08-03T08:00:37.960Z,24.50
2022-08-03T08:03:06.136Z,24.57
2022-08-03T08:05:34.826Z,24.75
2022-08-03T08:08:04.809Z,24.85
2022-08-03T08:10:33.754Z,24.94
2022-08-03T08:13:02.758Z,25.03
2022-08-03T08:15:33.069Z,25.16
2022-08-03T08:18:02.546Z,25.41
2022-08-03T08:20:34.967Z,25.47
2022-08-03T08:23:34.505Z,25.70
2022-08-03T08:25:57.562Z,25.80
2022-08-03T08:28:32.191Z,25.82
2022-08-03T08:31:01.740Z,25.97
2022-08-03T08:36:18.383Z,26.23
2022-08-03T08:38:47.902Z,26.37
2022-08-03T08:41:18.364Z,26.39
2022-08-03T08:43:46.279Z,26.50
2022-08-03T08:46:23.325Z,26.52
2022-08-03T08:48:53.447Z,26.56
2022-08-03T08:51:23.276Z,26.61
2022-08-03T08:53:54.216Z,26.65
2022-08-03T08:56:25.464Z,26.72
2022-08-03T08:59:02.738Z,26.82
2022-08-03T09:01:31.858Z,26.95
2022-08-03T09:04:02.516Z,27.04
2022-08-03T09:06:33.446Z,27.09
2022-08-03T09:09:02.802Z,27.21
2022-08-03T09:12:01.003Z,27.36
2022-08-03T09:14:39.146Z,27.45
2022-08-03T09:17:08.827Z,27.51
2022-08-03T09:20:04.413Z,27.62
2022-08-03T09:22:34.387Z,27.74
2022-08-03T09:25:23.989Z,27.84
2022-08-03T09:27:55.050Z,27.95
2022-08-03T09:30:33.930Z,28.08
2022-08-03T09:33:03.197Z,28.18
2022-08-03T09:38:23.966Z,28.38
2022-08-03T09:40:59.192Z,28.42
2022-08-03T09:43:47.490Z,28.50
2022-08-03T09:46:15.554Z,28.72
2022-08-03T09:48:43.587Z,28.76
2022-08-03T09:51:32.975Z,28.82
2022-08-03T09:54:12.654Z,28.92
2022-08-03T09:56:48.086Z,28.98
2022-08-03T09:59:26.120Z,29.03
2022-08-03T10:01:54.917Z,29.08
2022-08-03T10:04:23.542Z,29.13
2022-08-03T10:07:05.390Z,29.48
2022-08-03T10:09:33.875Z,29.48
2022-08-03T10:12:13.944Z,29.52
2022-08-03T10:14:45.501Z,29.62
2022-08-03T10:17:13.786Z,29.64
2022-08-03T10:19:42.098Z,29.69
2022-08-03T10:22:14.328Z,29.78
2022-08-03T10:24:51.157Z,29.88
2022-08-03T10:27:21.628Z,29.96
2022-08-03T10:29:54.648Z,30.02
2022-08-03T10:32:28.877Z,30.05
2022-08-03T10:35:19.537Z,30.06
2022-08-03T10:37:59.140Z,30.13
2022-08-03T10:40:48.122Z,30.20
2022-08-03T10:43:22.881Z,30.35
2022-08-03T10:45:52.191Z,30.54
2022-08-03T10:48:21.698Z,30.67
2022-08-03T10:50:51.113Z,30.80
2022-08-03T10:53:36.400Z,30.97
2022-08-03T10:56:35.364Z,31.01
2022-08-03T10:59:12.393Z,31.01
2022-08-03T11:02:00.802Z,31.10
2022-08-03T11:04:30.730Z,31.11
2022-08-03T11:07:23.190Z,31.13
2022-08-03T11:09:55.350Z,31.16
2022-08-03T11:12:30.744Z,31.23
2022-08-03T11:15:05.554Z,31.28
2022-08-03T11:17:45.905Z,31.35
2022-08-03T11:20:45.557Z,31.42
2022-08-03T11:23:13.857Z,31.56
2022-08-03T11:26:13.458Z,31.62
2022-08-03T11:28:46.316Z,31.66
2022-08-03T11:31:50.911Z,31.81
2022-08-03T11:34:19.650Z,31.90
2022-08-03T11:37:31.380Z,31.98
2022-08-03T11:40:02.898Z,32.11
2022-08-03T11:42:48.194Z,32.21
2022-08-03T11:45:16.741Z,32.28
2022-08-03T11:47:50.509Z,32.37
2022-08-03T11:50:22.026Z,32.43
2022-08-03T11:52:52.664Z,32.43
2022-08-03T11:55:22.815Z,32.55
2022-08-03T11:59:01.028Z,32.63
2022-08-03T12:00:41.414Z,32.71
2022-08-03T12:03:16.205Z,32.76
2022-08-03T12:05:51.129Z,32.85
2022-08-03T12:08:31.914Z,32.94
2022-08-03T12:11:01.592Z,33.02
2022-08-03T12:14:45.642Z,33.05
2022-08-03T12:16:29.653Z,33.16
2022-08-03T12:19:00.651Z,33.29
2022-08-03T12:21:29.441Z,33.40
2022-08-03T12:24:01.685Z,33.52
2022-08-03T12:26:45.004Z,33.60
2022-08-03T12:29:27.536Z,33.71
2022-08-03T12:31:58.544Z,33.83
2022-08-03T12:34:47.409Z,33.94
2022-08-03T12:37:22.634Z,34.07
2022-08-03T12:40:02.490Z,34.20
2022-08-03T12:42:35.069Z,34.32
2022-08-03T12:45:21.344Z,34.29
2022-08-03T12:47:54.285Z,34.37
2022-08-03T12:50:28.608Z,34.51
2022-08-03T12:52:57.057Z,34.65
2022-08-03T12:55:57.822Z,34.78
2022-08-03T12:58:33.486Z,34.94
2022-08-03T13:01:05.258Z,35.00
2022-08-03T13:03:43.637Z,35.06
2022-08-03T13:06:20.460Z,35.10
2022-08-03T13:08:49.539Z,35.15
2022-08-03T13:11:55.619Z,35.26
2022-08-03T13:14:13.614Z,35.33
2022-08-03T13:16:49.120Z,35.30
2022-08-03T13:19:17.377Z,35.42
2022-08-03T13:21:53.578Z,35.53
2022-08-03T13:24:32.368Z,35.54
2022-08-03T13:27:00.387Z,35.67
2022-08-03T13:29:28.431Z,35.82
2022-08-03T13:31:56.539Z,35.97
2022-08-03T13:34:24.597Z,36.13
2022-08-03T13:37:09.092Z,36.29
2022-08-03T13:39:58.323Z,36.44
2022-08-03T13:42:26.706Z,36.62
2022-08-03T13:44:54.753Z,36.76
2022-08-03T13:47:23.089Z,36.89
2022-08-03T13:49:56.979Z,37.00
2022-08-03T13:52:30.855Z,37.17
2022-08-03T13:54:59.944Z,37.25
2022-08-03T13:58:03.294Z,37.37
2022-08-03T14:00:27.821Z,37.51
2022-08-03T14:03:16.377Z,37.64
2022-08-03T14:05:48.124Z,37.78
2022-08-03T14:08:18.181Z,37.87
2022-08-03T14:10:48.610Z,37.96
2022-08-03T14:13:16.782Z,38.08
2022-08-03T14:15:50.018Z,38.14
2022-08-03T14:18:28.622Z,38.28
2022-08-03T14:21:07.015Z,38.41
2022-08-03T14:23:38.459Z,38.57
2022-08-03T14:26:07.674Z,38.67
2022-08-03T14:28:36.145Z,38.78
2022-08-03T14:31:15.250Z,38.92
2022-08-03T14:33:53.337Z,38.87
2022-08-03T14:36:21.259Z,38.62
2022-08-03T14:38:50.925Z,38.58
2022-08-03T14:41:20.352Z,38.82
2022-08-03T14:44:01.263Z,38.89
2022-08-03T14:46:31.320Z,39.01
2022-08-03T14:50:28.430Z,39.25
2022-08-03T14:51:51.602Z,39.50
2022-08-03T14:54:25.748Z,39.70
2022-08-03T14:56:53.705Z,39.84
2022-08-03T14:59:22.002Z,40.08
2022-08-03T15:02:02.978Z,40.32
2022-08-03T15:04:34.784Z,40.54
2022-08-03T15:07:02.675Z,40.64
2022-08-03T15:09:34.590Z,40.77
2022-08-03T15:12:02.614Z,40.98
2022-08-03T15:14:33.397Z,41.10
2022-08-03T15:17:03.042Z,41.26
2022-08-03T15:20:03.681Z,41.63
2022-08-03T15:22:25.141Z,41.94
2022-08-03T15:24:56.187Z,42.29
2022-08-03T15:27:24.241Z,42.78
2022-08-03T15:30:08.730Z,44.00
2022-08-03T15:32:39.726Z,46.47
2022-08-03T15:35:08.226Z,47.72
2022-08-03T15:37:36.149Z,48.11
2022-08-03T15:40:06.822Z,47.60
2022-08-03T15:42:35.582Z,47.57
2022-08-03T15:45:03.609Z,48.16
2022-08-03T15:47:31.634Z,48.57
2022-08-03T15:49:59.791Z,49.33
2022-08-03T15:52:28.811Z,50.38
2022-08-03T15:54:56.859Z,51.27
2022-08-03T15:57:26.151Z,52.74
2022-08-03T15:59:54.188Z,53.63
2022-08-03T16:02:22.280Z,54.54
2022-08-03T16:04:53.716Z,55.17
2022-08-03T16:07:42.062Z,55.91
2022-08-03T16:10:30.642Z,56.77
2022-08-03T16:13:00.652Z,56.94
2022-08-03T16:15:31.132Z,57.52
2022-08-03T16:17:59.877Z,57.81
2022-08-03T16:20:30.896Z,58.47
2022-08-03T16:23:10.448Z,58.79
2022-08-03T16:25:39.300Z,58.99
2022-08-03T16:28:13.741Z,59.14
2022-08-03T16:30:44.205Z,59.00
2022-08-03T16:33:17.860Z,59.22
2022-08-03T16:35:46.947Z,59.46
2022-08-03T16:38:18.763Z,59.49
2022-08-03T16:40:51.459Z,59.65
2022-08-03T16:43:23.128Z,58.60
2022-08-03T16:45:51.777Z,58.24
2022-08-03T16:48:22.654Z,57.19
2022-08-03T16:50:50.724Z,55.06
2022-08-03T16:53:33.541Z,54.16
2022-08-03T16:56:10.091Z,54.97
2022-08-03T16:58:42.405Z,55.86
2022-08-03T17:01:24.111Z,55.83
2022-08-03T17:04:02.444Z,54.79
2022-08-03T17:06:35.203Z,53.00
2022-08-03T17:09:09.219Z,51.20
2022-08-03T17:11:43.893Z,49.92
2022-08-03T17:14:17.106Z,48.82
2022-08-03T17:16:53.075Z,48.37
2022-08-03T17:19:24.490Z,47.44
2022-08-03T17:22:04.186Z,47.14
2022-08-03T17:24:35.064Z,46.89
2022-08-03T17:27:08.598Z,46.25
2022-08-03T17:29:45.299Z,45.78
2022-08-03T17:32:18.389Z,45.36
2022-08-03T17:34:51.087Z,44.90
2022-08-03T17:37:50.673Z,44.36
2022-08-03T17:40:17.286Z,43.77
2022-08-03T17:42:50.448Z,43.04
2022-08-03T17:45:21.045Z,42.40
2022-08-03T17:47:57.420Z,41.70
2022-08-03T17:50:35.723Z,40.87
2022-08-03T17:53:15.195Z,40.18
2022-08-03T17:55:58.979Z,39.48
2022-08-03T17:58:39.781Z,38.78
2022-08-03T18:02:06.278Z,38.24
2022-08-03T18:04:29.669Z,37.70
2022-08-03T18:07:00.406Z,37.31
2022-08-03T18:10:03.526Z,36.97
2022-08-03T18:12:41.482Z,36.58
2022-08-03T18:15:21.248Z,36.31
2022-08-03T18:18:02.061Z,36.00
2022-08-03T18:20:41.187Z,35.68
2022-08-03T18:23:25.139Z,35.34
2022-08-03T18:26:00.838Z,34.97
2022-08-03T18:28:29.566Z,34.73
2022-08-03T18:30:58.479Z,34.53
2022-08-03T18:34:18.525Z,34.34
2022-08-03T18:36:21.989Z,34.14
2022-08-03T18:39:01.669Z,33.92
2022-08-03T18:41:33.714Z,33.71
2022-08-03T18:44:09.237Z,33.52
2022-08-03T18:47:15.945Z,33.30
2022-08-03T18:50:04.805Z,33.08
2022-08-03T18:52:46.030Z,32.87
2022-08-03T18:55:33.469Z,32.71
2022-08-03T18:58:15.774Z,32.53
2022-08-03T19:00:55.053Z,32.38
2022-08-03T19:03:42.998Z,32.20
2022-08-03T19:06:20.455Z,32.03
2022-08-03T19:08:55.507Z,31.87
2022-08-03T19:12:14.559Z,31.72
2022-08-03T19:14:28.800Z,31.57
2022-08-03T19:17:06.173Z,31.42
2022-08-03T19:19:44.055Z,31.27
2022-08-03T19:22:16.277Z,31.13
2022-08-03T19:24:46.515Z,30.99
2022-08-03T19:27:16.056Z,30.89
2022-08-03T19:29:58.464Z,30.79
2022-08-03T19:32:29.820Z,30.64
2022-08-03T19:35:01.792Z,30.52
2022-08-03T19:37:38.699Z,30.40
2022-08-03T19:40:10.251Z,30.28
2022-08-03T19:42:41.962Z,30.17
2022-08-03T19:45:14.421Z,30.05
2022-08-03T19:47:46.883Z,29.95
2022-08-03T19:50:16.703Z,29.84
2022-08-03T19:52:50.407Z,29.76
2022-08-03T19:55:19.091Z,29.66
2022-08-03T19:57:49.395Z,29.54
2022-08-03T20:00:26.176Z,29.40
2022-08-03T20:02:54.985Z,29.29
2022-08-03T20:05:26.376Z,29.21
2022-08-03T20:08:00.516Z,29.12
2022-08-03T20:10:30.141Z,29.04
2022-08-03T20:12:58.473Z,28.98
2022-08-03T20:18:18.205Z,28.80
2022-08-03T20:20:51.306Z,28.72
2022-08-03T20:23:21.312Z,28.62
2022-08-03T20:25:58.193Z,28.54
2022-08-03T20:28:32.205Z,28.47
2022-08-03T20:31:01.764Z,28.38
2022-08-03T20:33:46.039Z,28.31
2022-08-03T20:36:15.861Z,28.19
2022-08-03T20:38:48.143Z,28.10
2022-08-03T20:41:17.148Z,28.02
2022-08-03T20:43:45.378Z,27.95
2022-08-03T20:46:31.781Z,27.88
2022-08-03T20:49:07.742Z,27.79
2022-08-03T20:51:50.502Z,27.71
2022-08-03T20:57:17.695Z,27.52
2022-08-03T20:59:50.241Z,27.43
2022-08-03T21:02:29.483Z,27.33
2022-08-03T21:05:03.342Z,27.25
2022-08-03T21:08:06.470Z,27.14
2022-08-03T21:10:39.837Z,27.06
2022-08-03T21:13:03.792Z,28.90
2022-08-03T21:13:12.468Z,27.59
2022-08-03T21:13:18.516Z,27.01
2022-08-03T21:16:12.230Z,26.95
2022-08-03T21:18:43.646Z,26.87
2022-08-03T21:21:14.905Z,26.78
2022-08-03T21:23:48.619Z,26.74
2022-08-03T21:26:20.718Z,26.68
2022-08-03T21:28:50.229Z,26.65
2022-08-03T21:31:23.712Z,26.59
2022-08-03T21:33:55.824Z,26.53
2022-08-03T21:36:24.235Z,26.46
2022-08-03T21:38:56.549Z,26.42
2022-08-03T21:41:27.166Z,26.35
2022-08-03T21:43:55.364Z,26.29
2022-08-03T21:46:23.886Z,26.23
2022-08-03T21:50:06.894Z,26.17
2022-08-03T21:51:46.651Z,26.10
2022-08-03T21:54:14.713Z,26.07
2022-08-03T21:56:48.692Z,26.03
2022-08-03T21:59:20.232Z,25.92
2022-08-03T22:01:55.046Z,25.87
2022-08-03T22:04:50.048Z,25.82
2022-08-03T22:07:14.649Z,25.79
2022-08-03T22:09:51.037Z,25.74
2022-08-03T22:12:24.044Z,25.70
2022-08-03T22:15:01.328Z,25.66
2022-08-03T22:17:54.709Z,25.61
2022-08-03T22:20:21.364Z,25.54
2022-08-03T22:22:56.650Z,25.49
2022-08-03T22:25:32.207Z,25.45
2022-08-03T22:28:05.137Z,25.42
2022-08-03T22:30:33.276Z,25.36
2022-08-03T22:33:11.297Z,25.33
2022-08-03T22:35:44.455Z,25.29
2022-08-03T22:38:16.851Z,25.26
2022-08-03T22:40:45.739Z,25.21
2022-08-03T22:43:15.260Z,25.14
2022-08-03T22:46:09.193Z,25.08
2022-08-03T22:48:35.432Z,25.00
2022-08-03T22:51:08.828Z,24.95
2022-08-03T22:53:37.448Z,24.88
2022-08-03T22:56:06.113Z,24.82
2022-08-03T22:58:35.369Z,24.81
2022-08-03T23:01:07.100Z,24.79
2022-08-03T23:04:01.092Z,24.77
2022-08-03T23:06:28.412Z,24.73
2022-08-03T23:08:56.999Z,24.72
2022-08-03T23:11:25.409Z,24.69
2022-08-03T23:14:00.157Z,24.64
2022-08-03T23:16:29.932Z,24.59
2022-08-03T23:19:00.171Z,24.51
2022-08-03T23:21:53.705Z,24.47
2022-08-03T23:24:31.803Z,24.47
2022-08-03T23:26:59.707Z,24.46
2022-08-03T23:29:31.390Z,24.42
2022-08-03T23:32:00.599Z,24.40
2022-08-03T23:34:46.426Z,24.36
2022-08-03T23:37:15.785Z,24.37
2022-08-03T23:39:45.625Z,24.35
2022-08-03T23:42:16.095Z,24.34
2022-08-03T23:44:46.006Z,24.32
2022-08-03T23:49:42.539Z,24.27
2022-08-03T23:52:16.476Z,24.25
2022-08-03T23:54:58.237Z,24.21
2022-08-03T23:57:33.713Z,24.15
